Hauptseite
METAR-TAF:

METAR-TAF

Flughäfen :

Tripolis, Libyen

Mitiga International Airport

Breite: 32-54N, Länge: 13-17E, Höhe: 11 m

Beobachtung

Neuester Wetterbericht von vor 58 Minuten, um 07:18 UTC
Wind 4 kt aus Südost
Temperatur 22°C
Luftfeuchtigkeit 38%
Luftdruck 1012 hPa
Sichtweite: 0500 m
Himmel klar
trockener Dunst

METAR: HLLM 280718Z 13004KT 0500 HZ SKC 22/07 Q1012

Zeit: 10:16 (08:16 UTC)

Prognose

Neuester Wetterbericht von vor 3 Stunden und 16 Minuten, um 05:00 UTC
Gültige Prognose vom 28 um 06 UTC bis 29 um 06 UTC
Wind 5 kt aus Süd/Südost
Sichtweite: 7000 m
Übergehend zu
vom 28 um 10 UTC bis 28 um 12 UTC
Übergehend zu
vom 28 um 20 UTC bis 28 um 22 UTC
Wind 15 kt aus Südost

TAF: HLLM 280500Z 2806/2906 15005KT 7000 NSC BECMG 2810/2812 BECMG 2820/2822 14015KT

Wetterbeobachtungen und Prognosen von mehr als 4000 Flughäfen (METAR und TAF Bericht).

Die verfügbaren Stationen werden durch gelbe und rote Markierungen auf der Karte dargestellt.

Führen Sie die Maus auf sie, um den Namen der Station zu sehen.

Darauf klicken, um die Beobachtung von Wetterbeobachtungen und Prognosen zu sehen.

Um die Karte zu ändern : klicken Sie auf den grünen Tasten mit einem schwarzen Kreuz Zum Vergrößern, auf den grünen Button mit einem Gedankenstrich zu verkleinern, oder auf die grünen Pfeile für benachbarte Karten.


METAR-TAF: